createdAt,value
2023-02-11T00:00:29.660Z,2.36
2023-02-11T00:01:29.360Z,2.39
2023-02-11T00:02:29.392Z,2.37
2023-02-11T00:03:29.496Z,2.4
2023-02-11T00:04:31.719Z,2.45
2023-02-11T00:05:29.689Z,2.45
2023-02-11T00:06:29.464Z,2.47
2023-02-11T00:07:29.388Z,2.5
2023-02-11T00:08:29.398Z,2.49
2023-02-11T00:09:31.827Z,2.54
2023-02-11T00:10:29.687Z,2.58
2023-02-11T00:11:29.324Z,2.62
2023-02-11T00:12:29.420Z,2.65
2023-02-11T00:13:29.437Z,2.68
2023-02-11T00:14:29.408Z,2.68
2023-02-11T00:15:31.908Z,2.72
2023-02-11T00:16:29.516Z,2.71
2023-02-11T00:17:29.324Z,2.72
2023-02-11T00:18:29.300Z,2.73
2023-02-11T00:19:29.444Z,2.73
2023-02-11T00:20:29.669Z,2.75
2023-02-11T00:21:29.437Z,2.73
2023-02-11T00:22:29.351Z,2.74
2023-02-11T00:23:29.330Z,2.71
2023-02-11T00:24:29.446Z,2.71
2023-02-11T00:25:29.683Z,2.72
2023-02-11T00:26:31.679Z,2.71
2023-02-11T00:27:29.422Z,2.7
2023-02-11T00:28:29.350Z,2.63
2023-02-11T00:29:29.418Z,2.58
2023-02-11T00:30:29.753Z,2.56
2023-02-11T00:31:29.575Z,2.52
2023-02-11T00:32:29.393Z,2.54
2023-02-11T00:33:29.386Z,2.56
2023-02-11T00:34:29.439Z,2.58
2023-02-11T00:35:29.662Z,2.56
2023-02-11T00:36:29.352Z,2.55
2023-02-11T00:37:31.645Z,2.56
2023-02-11T00:38:29.437Z,2.55
2023-02-11T00:39:29.369Z,2.53
2023-02-11T00:40:29.346Z,2.53
2023-02-11T00:41:29.314Z,2.52
2023-02-11T00:42:29.442Z,2.53
2023-02-11T00:43:29.325Z,2.58
2023-02-11T00:44:29.337Z,2.65
2023-02-11T00:45:29.666Z,2.69
2023-02-11T00:46:29.422Z,2.73
2023-02-11T00:47:29.428Z,2.77
2023-02-11T00:48:31.627Z,2.8
2023-02-11T00:49:29.370Z,2.82
2023-02-11T00:50:29.675Z,2.84
2023-02-11T00:51:29.384Z,2.84
2023-02-11T00:52:29.443Z,2.86
2023-02-11T00:53:29.417Z,2.87
2023-02-11T00:54:30.078Z,2.89
2023-02-11T00:55:29.668Z,2.85
2023-02-11T00:56:29.404Z,2.82
2023-02-11T00:57:29.354Z,2.82
2023-02-11T00:58:29.331Z,2.81
2023-02-11T00:59:31.751Z,2.8
2023-02-11T01:00:29.672Z,2.79
2023-02-11T01:01:29.530Z,2.81
2023-02-11T01:02:29.347Z,2.8
2023-02-11T01:03:29.388Z,2.8
2023-02-11T01:04:29.344Z,2.79
2023-02-11T01:05:29.825Z,2.8
2023-02-11T01:06:29.310Z,2.79
2023-02-11T01:07:29.390Z,2.83
2023-02-11T01:08:29.370Z,2.86
2023-02-11T01:09:29.372Z,2.9
2023-02-11T01:10:34.142Z,2.88
2023-02-11T01:11:29.484Z,2.87
2023-02-11T01:12:29.405Z,2.9
2023-02-11T01:13:29.333Z,2.92
2023-02-11T01:14:29.331Z,2.94
2023-02-11T01:15:29.886Z,2.95
2023-02-11T01:16:29.407Z,2.97
2023-02-11T01:17:29.374Z,2.96
2023-02-11T01:18:29.412Z,2.97
2023-02-11T01:19:29.441Z,2.98
2023-02-11T01:20:29.668Z,3
2023-02-11T01:21:31.710Z,3.02
2023-02-11T01:22:29.354Z,2.98
2023-02-11T01:23:29.350Z,2.98
2023-02-11T01:24:29.433Z,3
2023-02-11T01:25:29.674Z,3.03
2023-02-11T01:26:29.322Z,3.05
2023-02-11T01:27:29.439Z,3.06
2023-02-11T01:28:29.397Z,3.1
2023-02-11T01:29:29.284Z,3.1
2023-02-11T01:30:29.664Z,3.12
2023-02-11T01:31:29.436Z,3.14
2023-02-11T01:32:31.676Z,3.15
2023-02-11T01:33:29.335Z,3.18
2023-02-11T01:34:29.314Z,3.22
2023-02-11T01:35:29.673Z,3.26
2023-02-11T01:36:29.355Z,3.27
2023-02-11T01:37:29.363Z,3.3
2023-02-11T01:38:29.441Z,3.32
2023-02-11T01:39:29.462Z,3.3
2023-02-11T01:40:29.670Z,3.27
2023-02-11T01:41:29.410Z,3.25
2023-02-11T01:42:29.308Z,3.21
2023-02-11T01:43:31.738Z,3.2
2023-02-11T01:44:29.377Z,3.22
2023-02-11T01:45:29.670Z,3.24
2023-02-11T01:46:29.465Z,3.25
2023-02-11T01:47:29.478Z,3.24
2023-02-11T01:48:29.478Z,3.24
2023-02-11T01:49:29.477Z,3.24
2023-02-11T01:50:29.668Z,3.25
2023-02-11T01:51:29.436Z,3.23
2023-02-11T01:52:29.350Z,3.19
2023-02-11T01:53:29.448Z,3.18
2023-02-11T01:54:31.672Z,3.16
2023-02-11T01:55:29.680Z,3.14
2023-02-11T01:56:29.389Z,3.09
2023-02-11T01:57:29.383Z,3.04
2023-02-11T01:58:29.341Z,2.98
2023-02-11T01:59:29.319Z,2.96
2023-02-11T02:00:29.690Z,2.93
2023-02-11T02:01:29.475Z,2.89
2023-02-11T02:02:29.442Z,2.83
2023-02-11T02:03:29.435Z,2.78
2023-02-11T02:04:29.384Z,2.74
2023-02-11T02:05:34.174Z,2.72
2023-02-11T02:06:29.336Z,2.71
2023-02-11T02:07:29.456Z,2.68
2023-02-11T02:08:29.345Z,2.71
2023-02-11T02:09:29.418Z,2.7
2023-02-11T02:10:29.674Z,2.62
2023-02-11T02:11:29.348Z,2.6
2023-02-11T02:12:29.382Z,2.59
2023-02-11T02:13:29.411Z,2.59
2023-02-11T02:14:29.395Z,2.56
2023-02-11T02:15:29.670Z,2.52
2023-02-11T02:16:31.681Z,2.52
2023-02-11T02:17:29.443Z,2.54
2023-02-11T02:18:29.424Z,2.6
2023-02-11T02:19:29.329Z,2.66
2023-02-11T02:20:29.667Z,2.66
2023-02-11T02:21:29.462Z,2.7
2023-02-11T02:22:29.377Z,2.75
2023-02-11T02:23:29.336Z,2.77
2023-02-11T02:24:29.448Z,2.81
2023-02-11T02:25:29.671Z,2.79
2023-02-11T02:26:29.367Z,2.78
2023-02-11T02:27:31.738Z,2.77
2023-02-11T02:28:29.475Z,2.81
2023-02-11T02:29:29.397Z,2.83
2023-02-11T02:30:29.681Z,2.84
2023-02-11T02:31:29.410Z,2.84
2023-02-11T02:32:29.415Z,2.87
2023-02-11T02:33:29.377Z,2.86
2023-02-11T02:34:29.410Z,2.83
2023-02-11T02:35:29.680Z,2.8
2023-02-11T02:36:29.343Z,2.8
2023-02-11T02:37:29.333Z,2.78
2023-02-11T02:38:31.703Z,2.77
2023-02-11T02:39:29.421Z,2.74
2023-02-11T02:40:29.663Z,2.75
2023-02-11T02:41:29.375Z,2.73
2023-02-11T02:42:29.336Z,2.73
2023-02-11T02:43:29.335Z,2.76
2023-02-11T02:44:29.442Z,2.78
2023-02-11T02:45:29.682Z,2.81
2023-02-11T02:46:29.380Z,2.87
2023-02-11T02:47:29.339Z,2.85
2023-02-11T02:48:29.433Z,2.84
2023-02-11T02:49:31.635Z,2.83
2023-02-11T02:50:29.663Z,2.87
2023-02-11T02:51:29.405Z,2.94
2023-02-11T02:52:29.410Z,2.97
2023-02-11T02:53:29.323Z,2.96
2023-02-11T02:54:29.354Z,2.97
2023-02-11T02:55:29.678Z,2.98
2023-02-11T02:56:29.405Z,2.98
2023-02-11T02:57:29.430Z,2.99
2023-02-11T02:58:29.408Z,2.99
2023-02-11T02:59:29.442Z,3.01
2023-02-11T03:00:31.840Z,3.01
2023-02-11T03:01:29.432Z,3.02
2023-02-11T03:02:29.451Z,3.08
2023-02-11T03:03:29.358Z,3.12
2023-02-11T03:04:29.431Z,3.12
2023-02-11T03:05:29.675Z,3.15
2023-02-11T03:06:29.395Z,3.16
2023-02-11T03:07:29.387Z,3.17
2023-02-11T03:08:29.347Z,3.15
2023-02-11T03:09:29.435Z,3.18
2023-02-11T03:10:29.684Z,3.15
2023-02-11T03:11:31.689Z,3.1
2023-02-11T03:12:29.314Z,3.1
2023-02-11T03:13:29.437Z,3.1
2023-02-11T03:14:29.410Z,3.12
2023-02-11T03:15:29.672Z,3.14
2023-02-11T03:16:29.371Z,3.16
2023-02-11T03:17:29.359Z,3.17
2023-02-11T03:18:29.455Z,3.15
2023-02-11T03:19:29.456Z,3.17
2023-02-11T03:20:29.674Z,3.14
2023-02-11T03:21:29.349Z,3.09
2023-02-11T03:22:31.739Z,3.09
2023-02-11T03:23:29.354Z,3.07
2023-02-11T03:24:29.330Z,3.06
2023-02-11T03:25:29.325Z,3.06
2023-02-11T03:26:29.354Z,3.1
2023-02-11T03:27:29.455Z,3.11
2023-02-11T03:28:29.453Z,3.12
2023-02-11T03:29:29.404Z,3.12
2023-02-11T03:30:29.670Z,3.11
2023-02-11T03:31:29.432Z,3.11
2023-02-11T03:32:29.415Z,3.1
2023-02-11T03:33:31.652Z,3.12
2023-02-11T03:34:29.377Z,3.14
2023-02-11T03:35:29.676Z,3.12
2023-02-11T03:36:29.408Z,3.16
2023-02-11T03:37:29.337Z,3.14
2023-02-11T03:38:29.336Z,3.1
2023-02-11T03:39:29.446Z,3.08
2023-02-11T03:40:29.723Z,3.04
2023-02-11T03:41:29.468Z,3.01
2023-02-11T03:42:29.314Z,2.98
2023-02-11T03:43:29.441Z,2.96
2023-02-11T03:44:31.733Z,2.97
2023-02-11T03:45:29.739Z,3.01
2023-02-11T03:46:29.384Z,3.01
2023-02-11T03:47:29.392Z,3.01
2023-02-11T03:48:29.446Z,2.99
2023-02-11T03:49:29.433Z,2.99
2023-02-11T03:50:29.699Z,2.96
2023-02-11T03:51:29.439Z,2.92
2023-02-11T03:52:29.445Z,2.85
2023-02-11T03:53:29.428Z,2.79
2023-02-11T03:54:29.333Z,2.73
2023-02-11T03:55:34.118Z,2.75
2023-02-11T03:56:29.333Z,2.74
2023-02-11T03:57:29.376Z,2.74
2023-02-11T03:58:29.346Z,2.73
2023-02-11T03:59:29.312Z,2.71
2023-02-11T04:00:29.689Z,2.68
2023-02-11T04:01:29.494Z,2.69
2023-02-11T04:02:29.319Z,2.71
2023-02-11T04:03:29.554Z,2.73
2023-02-11T04:04:29.332Z,2.72
2023-02-11T04:05:29.671Z,2.73
2023-02-11T04:06:31.752Z,2.76
2023-02-11T04:07:29.439Z,2.77
2023-02-11T04:08:29.337Z,2.81
2023-02-11T04:09:29.424Z,2.8
2023-02-11T04:10:29.802Z,2.81
2023-02-11T04:11:29.339Z,2.87
2023-02-11T04:12:29.450Z,2.91
2023-02-11T04:13:29.408Z,2.91
2023-02-11T04:14:29.401Z,2.97
2023-02-11T04:15:29.669Z,3.03
2023-02-11T04:16:29.490Z,3.07
2023-02-11T04:17:31.683Z,3.11
2023-02-11T04:18:29.332Z,3.13
2023-02-11T04:19:29.344Z,3.15
2023-02-11T04:20:29.683Z,3.14
2023-02-11T04:21:29.492Z,3.17
2023-02-11T04:22:29.366Z,3.19
2023-02-11T04:23:29.404Z,3.21
2023-02-11T04:24:29.455Z,3.25
2023-02-11T04:25:29.681Z,3.29
2023-02-11T04:26:29.381Z,3.35
2023-02-11T04:27:29.411Z,3.37
2023-02-11T04:28:31.705Z,3.36
2023-02-11T04:29:29.452Z,3.36
2023-02-11T04:30:29.716Z,3.31
2023-02-11T04:31:29.407Z,3.29
2023-02-11T04:32:29.416Z,3.28
2023-02-11T04:33:29.411Z,3.35
2023-02-11T04:34:29.303Z,3.39
2023-02-11T04:35:29.674Z,3.41
2023-02-11T04:36:29.427Z,3.43
2023-02-11T04:37:29.514Z,3.46
2023-02-11T04:38:29.344Z,3.49
2023-02-11T04:39:31.645Z,3.47
2023-02-11T04:40:29.676Z,3.49
2023-02-11T04:41:29.447Z,3.48
2023-02-11T04:42:29.360Z,3.49
2023-02-11T04:43:29.342Z,3.5
2023-02-11T04:44:29.391Z,3.51
2023-02-11T04:45:29.682Z,3.53
2023-02-11T04:46:29.361Z,3.57
2023-02-11T04:47:29.434Z,3.58
2023-02-11T04:48:29.420Z,3.57
2023-02-11T04:49:29.424Z,3.57
2023-02-11T04:50:34.188Z,3.56
2023-02-11T04:51:29.400Z,3.52
2023-02-11T04:52:29.415Z,3.5
2023-02-11T04:53:29.418Z,3.51
2023-02-11T04:54:29.390Z,3.52
2023-02-11T04:55:29.674Z,3.47
2023-02-11T04:56:29.452Z,3.49
2023-02-11T04:57:29.370Z,3.53
2023-02-11T04:58:29.385Z,3.53
2023-02-11T04:59:29.380Z,3.51
2023-02-11T05:00:29.442Z,3.48
2023-02-11T05:01:31.736Z,3.48
2023-02-11T05:02:29.442Z,3.46
2023-02-11T05:03:29.423Z,3.44
2023-02-11T05:04:29.409Z,3.43
2023-02-11T05:05:29.675Z,3.35
2023-02-11T05:06:29.400Z,3.34
2023-02-11T05:07:29.326Z,3.32
2023-02-11T05:08:29.320Z,3.29
2023-02-11T05:09:29.319Z,3.27
2023-02-11T05:10:29.670Z,3.27
2023-02-11T05:11:29.411Z,3.26
2023-02-11T05:12:31.721Z,3.31
2023-02-11T05:13:29.388Z,3.31
2023-02-11T05:14:29.414Z,3.28
2023-02-11T05:15:29.683Z,3.25
2023-02-11T05:16:29.462Z,3.2
2023-02-11T05:17:29.314Z,3.16
2023-02-11T05:18:29.516Z,3.22
2023-02-11T05:19:29.430Z,3.19
2023-02-11T05:20:29.679Z,3.2
2023-02-11T05:21:29.410Z,3.12
2023-02-11T05:22:29.355Z,3.15
2023-02-11T05:23:31.792Z,3.17
2023-02-11T05:24:29.316Z,3.14
2023-02-11T05:25:29.452Z,3.14
2023-02-11T05:26:29.416Z,3.17
2023-02-11T05:27:29.406Z,3.18
2023-02-11T05:28:29.410Z,3.2
2023-02-11T05:29:29.406Z,3.24
2023-02-11T05:30:29.728Z,3.22
2023-02-11T05:31:29.421Z,3.26
2023-02-11T05:32:29.390Z,3.25
2023-02-11T05:33:29.342Z,3.23
2023-02-11T05:34:31.734Z,3.25
2023-02-11T05:35:29.677Z,3.26
2023-02-11T05:36:31.644Z,3.24
2023-02-11T05:37:29.373Z,3.24
2023-02-11T05:38:29.415Z,3.28
2023-02-11T05:39:29.430Z,3.31
2023-02-11T05:40:29.672Z,3.32
2023-02-11T05:41:29.420Z,3.36
2023-02-11T05:42:29.329Z,3.35
2023-02-11T05:43:29.463Z,3.37
2023-02-11T05:44:29.342Z,3.36
2023-02-11T05:45:34.123Z,3.34
2023-02-11T05:46:29.463Z,3.32
2023-02-11T05:47:29.340Z,3.31
2023-02-11T05:48:29.318Z,3.25
2023-02-11T05:49:29.307Z,3.23
2023-02-11T05:50:29.677Z,3.28
2023-02-11T05:51:29.441Z,3.32
2023-02-11T05:52:29.343Z,3.39
2023-02-11T05:53:29.474Z,3.42
2023-02-11T05:54:29.373Z,3.41
2023-02-11T05:55:29.670Z,3.42
2023-02-11T05:56:31.671Z,3.44
2023-02-11T05:57:29.339Z,3.45
2023-02-11T05:58:29.376Z,3.43
2023-02-11T05:59:29.328Z,3.41
2023-02-11T06:00:29.684Z,3.41
2023-02-11T06:01:29.408Z,3.38
2023-02-11T06:02:29.509Z,3.35
2023-02-11T06:03:29.458Z,3.33
2023-02-11T06:04:29.349Z,3.32
2023-02-11T06:05:29.672Z,3.31
2023-02-11T06:06:29.423Z,3.3
2023-02-11T06:07:31.716Z,3.32
2023-02-11T06:08:29.451Z,3.28
2023-02-11T06:09:29.453Z,3.26
2023-02-11T06:10:29.338Z,3.24
2023-02-11T06:11:29.399Z,3.2
2023-02-11T06:12:29.414Z,3.15
2023-02-11T06:13:29.414Z,3.14
2023-02-11T06:14:29.348Z,3.17
2023-02-11T06:15:29.670Z,3.15
2023-02-11T06:16:29.421Z,3.19
2023-02-11T06:17:29.346Z,3.18
2023-02-11T06:18:31.721Z,3.19
2023-02-11T06:19:29.427Z,3.22
2023-02-11T06:20:29.664Z,3.19
2023-02-11T06:21:42.937Z,3.17
2023-02-11T06:22:29.451Z,3.11
2023-02-11T06:23:30.566Z,3.12
2023-02-11T06:24:54.661Z,3.14
2023-02-11T06:25:29.682Z,3.14
2023-02-11T06:26:29.454Z,3.11
2023-02-11T06:27:29.374Z,3.07
2023-02-11T06:28:29.512Z,3.06
2023-02-11T06:29:31.726Z,3.01
2023-02-11T06:30:29.678Z,2.99
2023-02-11T06:31:29.433Z,2.9
2023-02-11T06:32:43.505Z,2.86
2023-02-11T06:33:29.327Z,2.8
2023-02-11T06:34:29.398Z,2.75
2023-02-11T06:35:29.447Z,2.69
2023-02-11T06:36:29.397Z,2.62
2023-02-11T06:37:29.424Z,2.59
2023-02-11T06:38:29.454Z,2.6
2023-02-11T06:39:29.421Z,2.56
2023-02-11T06:40:34.097Z,2.51
2023-02-11T06:41:29.431Z,2.45
2023-02-11T06:42:29.386Z,2.43
2023-02-11T06:43:29.323Z,2.43
2023-02-11T06:44:29.376Z,2.4
2023-02-11T06:45:29.678Z,2.37
2023-02-11T06:46:29.353Z,2.34
2023-02-11T06:47:29.410Z,2.37
2023-02-11T06:48:29.431Z,2.37
2023-02-11T06:49:29.377Z,2.32
2023-02-11T06:50:29.676Z,2.28
2023-02-11T06:51:31.705Z,2.29
2023-02-11T06:52:29.381Z,2.25
2023-02-11T06:53:29.433Z,2.28
2023-02-11T06:54:29.423Z,2.28
2023-02-11T06:55:29.678Z,2.29
2023-02-11T06:56:29.419Z,2.31
2023-02-11T06:57:29.317Z,2.32
2023-02-11T06:58:29.422Z,2.36
2023-02-11T06:59:29.392Z,2.45
2023-02-11T07:00:29.676Z,2.41
2023-02-11T07:01:29.400Z,2.44
2023-02-11T07:02:31.743Z,2.43
2023-02-11T07:03:29.408Z,2.49
2023-02-11T07:04:29.404Z,2.51
2023-02-11T07:05:29.817Z,2.53
2023-02-11T07:06:29.451Z,2.6
2023-02-11T07:07:30.054Z,2.64
2023-02-11T07:08:29.384Z,2.67
2023-02-11T07:09:29.330Z,2.69
2023-02-11T07:10:29.688Z,2.73
2023-02-11T07:11:29.441Z,2.78
2023-02-11T07:12:29.401Z,2.84
2023-02-11T07:13:31.731Z,2.9
2023-02-11T07:14:29.462Z,2.95
2023-02-11T07:15:29.669Z,2.99
2023-02-11T07:16:29.392Z,3.04
2023-02-11T07:17:29.320Z,3.09
2023-02-11T07:18:29.316Z,3.15
2023-02-11T07:19:29.326Z,3.24
2023-02-11T07:20:29.517Z,3.28
2023-02-11T07:21:29.341Z,3.29
2023-02-11T07:22:29.430Z,3.28
2023-02-11T07:23:29.330Z,3.3
2023-02-11T07:24:31.706Z,3.34
2023-02-11T07:25:29.691Z,3.36
2023-02-11T07:26:29.319Z,3.36
2023-02-11T07:27:29.400Z,3.34
2023-02-11T07:28:29.400Z,3.37
2023-02-11T07:29:29.324Z,3.48
2023-02-11T07:30:29.685Z,3.46
2023-02-11T07:31:29.507Z,3.42
2023-02-11T07:32:29.446Z,3.43
2023-02-11T07:33:29.340Z,3.44
2023-02-11T07:34:29.379Z,3.45
2023-02-11T07:35:34.146Z,3.48
2023-02-11T07:36:29.360Z,3.5
2023-02-11T07:37:29.315Z,3.54
2023-02-11T07:38:29.347Z,3.54
2023-02-11T07:39:29.330Z,3.58
2023-02-11T07:40:29.683Z,3.65
2023-02-11T07:41:29.301Z,3.72
2023-02-11T07:42:29.432Z,3.78
2023-02-11T07:43:29.326Z,3.83
2023-02-11T07:44:29.337Z,3.84
2023-02-11T07:45:29.437Z,3.88
2023-02-11T07:46:31.761Z,3.88
2023-02-11T07:47:29.317Z,3.9
2023-02-11T07:48:29.452Z,3.97
2023-02-11T07:49:29.434Z,4.03
2023-02-11T07:50:29.674Z,4.07
2023-02-11T07:51:29.405Z,4.16
2023-02-11T07:52:29.324Z,4.23
2023-02-11T07:53:29.445Z,4.31
2023-02-11T07:54:29.314Z,4.44
2023-02-11T07:55:29.673Z,4.63
2023-02-11T07:56:29.474Z,4.77
2023-02-11T07:57:31.649Z,4.87
2023-02-11T07:58:29.301Z,5.03
2023-02-11T07:59:29.347Z,5.18
2023-02-11T08:00:29.680Z,5.27
2023-02-11T08:01:29.383Z,5.34
2023-02-11T08:02:29.410Z,5.41
2023-02-11T08:03:29.357Z,5.43
2023-02-11T08:04:29.353Z,5.42
2023-02-11T08:05:29.696Z,5.42
2023-02-11T08:06:29.399Z,5.41
2023-02-11T08:07:29.412Z,5.43
2023-02-11T08:08:31.635Z,5.43
2023-02-11T08:09:29.387Z,5.4
2023-02-11T08:10:29.672Z,5.33
2023-02-11T08:11:29.424Z,5.25
2023-02-11T08:12:29.370Z,5.15
2023-02-11T08:13:29.372Z,5.06
2023-02-11T08:14:29.388Z,5.03
2023-02-11T08:15:29.676Z,4.99
2023-02-11T08:16:29.475Z,4.96
2023-02-11T08:17:29.377Z,4.95
2023-02-11T08:18:29.330Z,4.99
2023-02-11T08:19:34.838Z,4.99
2023-02-11T08:20:29.659Z,4.96
2023-02-11T08:21:29.478Z,4.97
2023-02-11T08:22:29.313Z,4.97
2023-02-11T08:23:29.437Z,4.97
2023-02-11T08:24:29.388Z,4.97
2023-02-11T08:25:29.579Z,5
2023-02-11T08:26:29.426Z,5.07
2023-02-11T08:27:29.376Z,5.14
2023-02-11T08:28:29.490Z,5.23
2023-02-11T08:29:29.410Z,5.27
2023-02-11T08:30:32.076Z,5.28
2023-02-11T08:31:29.460Z,5.28
2023-02-11T08:32:29.449Z,5.3
2023-02-11T08:33:29.397Z,5.33
2023-02-11T08:34:29.322Z,5.39
2023-02-11T08:35:29.665Z,5.45
2023-02-11T08:36:29.459Z,5.55
2023-02-11T08:37:32.060Z,5.64
2023-02-11T08:38:29.432Z,5.72
2023-02-11T08:39:29.298Z,5.87
2023-02-11T08:40:29.676Z,5.97
2023-02-11T08:41:31.690Z,6.09
2023-02-11T08:42:29.404Z,6.2
2023-02-11T08:43:29.380Z,6.26
2023-02-11T08:44:29.417Z,6.29
2023-02-11T08:45:29.824Z,6.28
2023-02-11T08:46:29.507Z,6.35
2023-02-11T08:47:29.415Z,6.44
2023-02-11T08:48:29.326Z,6.51
2023-02-11T08:49:29.308Z,6.57
2023-02-11T08:50:29.661Z,6.61
2023-02-11T08:51:29.376Z,6.6
2023-02-11T08:52:31.732Z,6.6
2023-02-11T08:53:29.424Z,6.59
2023-02-11T08:54:29.288Z,6.63
2023-02-11T08:55:29.347Z,6.59
2023-02-11T08:56:29.427Z,6.48
2023-02-11T08:57:29.405Z,6.43
2023-02-11T08:58:29.318Z,6.54
2023-02-11T08:59:29.402Z,6.55
2023-02-11T09:00:29.668Z,6.59
2023-02-11T09:01:29.478Z,6.6
2023-02-11T09:02:29.341Z,6.71
2023-02-11T09:03:31.711Z,6.85
2023-02-11T09:04:29.419Z,6.89
2023-02-11T09:05:29.658Z,6.95
2023-02-11T09:06:29.334Z,6.93
2023-02-11T09:07:29.344Z,6.97
2023-02-11T09:08:29.429Z,7.02
2023-02-11T09:09:29.376Z,7.04
2023-02-11T09:10:29.664Z,7.03
2023-02-11T09:11:29.347Z,7.18
2023-02-11T09:12:29.445Z,7.32
2023-02-11T09:13:29.446Z,7.45
2023-02-11T09:14:31.680Z,7.39
2023-02-11T09:15:30.005Z,7.21
2023-02-11T09:16:29.487Z,7.18
2023-02-11T09:17:29.339Z,7.14
2023-02-11T09:18:29.425Z,7.22
2023-02-11T09:19:29.387Z,7.3
2023-02-11T09:20:29.421Z,7.41
2023-02-11T09:21:29.417Z,7.56
2023-02-11T09:22:29.319Z,7.67
2023-02-11T09:23:29.406Z,7.79
2023-02-11T09:24:29.423Z,7.82
2023-02-11T09:25:34.129Z,7.88
2023-02-11T09:26:29.364Z,7.94
2023-02-11T09:27:29.388Z,8.02
2023-02-11T09:28:29.339Z,7.98
2023-02-11T09:29:29.365Z,7.85
2023-02-11T09:30:29.811Z,7.87
2023-02-11T09:31:29.496Z,7.8
2023-02-11T09:32:29.365Z,7.76
2023-02-11T09:33:29.344Z,7.74
2023-02-11T09:34:29.442Z,7.84
2023-02-11T09:35:29.663Z,7.96
2023-02-11T09:36:31.767Z,7.97
2023-02-11T09:37:29.374Z,7.95
2023-02-11T09:38:29.317Z,7.88
2023-02-11T09:39:29.469Z,7.84
2023-02-11T09:40:29.681Z,7.8
2023-02-11T09:41:29.450Z,7.65
2023-02-11T09:42:29.417Z,7.6
2023-02-11T09:43:29.449Z,7.56
2023-02-11T09:44:29.320Z,7.59
2023-02-11T09:45:29.672Z,7.6
2023-02-11T09:46:29.467Z,7.65
2023-02-11T09:47:31.754Z,7.71
2023-02-11T09:48:29.335Z,7.69
2023-02-11T09:49:29.398Z,7.67
2023-02-11T09:50:29.668Z,7.83
2023-02-11T09:51:29.456Z,7.98
2023-02-11T09:52:29.433Z,8.1
2023-02-11T09:53:29.351Z,8.1
2023-02-11T09:54:29.400Z,8.09
2023-02-11T09:55:29.677Z,8.12
2023-02-11T09:56:29.410Z,8.26
2023-02-11T09:57:29.454Z,8.45
2023-02-11T09:58:31.808Z,8.47
2023-02-11T09:59:29.441Z,8.44
2023-02-11T10:00:29.669Z,8.4
2023-02-11T10:01:29.441Z,8.29
2023-02-11T10:02:29.334Z,8.2
2023-02-11T10:03:29.429Z,8.28
2023-02-11T10:04:29.772Z,8.32
2023-02-11T10:05:29.671Z,8.38
2023-02-11T10:06:29.429Z,8.49
2023-02-11T10:07:29.463Z,8.53
2023-02-11T10:08:29.417Z,8.47
2023-02-11T10:09:31.784Z,8.52
2023-02-11T10:10:29.686Z,8.61
2023-02-11T10:11:32.125Z,8.53
2023-02-11T10:12:29.317Z,8.48
2023-02-11T10:13:29.392Z,8.54
2023-02-11T10:14:29.426Z,8.59
2023-02-11T10:15:29.706Z,8.69
2023-02-11T10:16:29.455Z,8.76
2023-02-11T10:17:29.379Z,8.84
2023-02-11T10:18:29.343Z,9.02
2023-02-11T10:19:29.445Z,9.18
2023-02-11T10:20:32.174Z,9.26
2023-02-11T10:21:29.327Z,9.39
2023-02-11T10:22:29.397Z,9.27
2023-02-11T10:23:29.374Z,9.12
2023-02-11T10:24:29.455Z,9.02
2023-02-11T10:25:29.675Z,8.93
2023-02-11T10:26:29.409Z,8.82
2023-02-11T10:27:29.457Z,8.77
2023-02-11T10:28:29.474Z,8.84
2023-02-11T10:29:29.385Z,8.85
2023-02-11T10:30:29.414Z,8.81
2023-02-11T10:31:31.907Z,8.81
2023-02-11T10:32:29.418Z,8.7
2023-02-11T10:33:29.391Z,8.58
2023-02-11T10:34:29.337Z,8.5
2023-02-11T10:35:29.700Z,8.46
2023-02-11T10:36:29.349Z,8.36
2023-02-11T10:37:29.366Z,8.39
2023-02-11T10:38:29.367Z,8.42
2023-02-11T10:39:29.314Z,8.31
2023-02-11T10:40:29.683Z,8.25
2023-02-11T10:41:29.321Z,8.29
2023-02-11T10:42:31.808Z,8.33
2023-02-11T10:43:29.446Z,8.28
2023-02-11T10:44:29.348Z,8.22
2023-02-11T10:45:29.681Z,8.2
2023-02-11T10:46:29.502Z,8.25
2023-02-11T10:47:29.464Z,8.4
2023-02-11T10:48:29.425Z,8.45
2023-02-11T10:49:29.444Z,8.42
2023-02-11T10:50:29.681Z,8.54
2023-02-11T10:51:29.400Z,8.65
2023-02-11T10:52:29.394Z,8.78
2023-02-11T10:53:31.724Z,8.94
2023-02-11T10:54:29.341Z,9.15
2023-02-11T10:55:29.315Z,9.26
2023-02-11T10:56:29.349Z,9.22
2023-02-11T10:57:29.413Z,9.23
2023-02-11T10:58:29.492Z,9.28
2023-02-11T10:59:29.439Z,9.36
2023-02-11T11:00:29.677Z,9.48
2023-02-11T11:01:29.486Z,9.61
2023-02-11T11:02:29.433Z,9.68
2023-02-11T11:03:29.324Z,9.67
2023-02-11T11:04:31.733Z,9.64
2023-02-11T11:05:29.679Z,9.7
2023-02-11T11:06:29.417Z,9.68
2023-02-11T11:07:29.347Z,9.58
2023-02-11T11:08:29.349Z,9.62
2023-02-11T11:09:29.310Z,9.61
2023-02-11T11:10:29.682Z,9.56
2023-02-11T11:11:29.453Z,9.51
2023-02-11T11:12:29.432Z,9.52
2023-02-11T11:13:29.328Z,9.45
2023-02-11T11:14:29.469Z,9.52
2023-02-11T11:15:34.114Z,9.62
2023-02-11T11:16:29.507Z,9.69
2023-02-11T11:17:29.440Z,9.71
2023-02-11T11:18:29.309Z,9.63
2023-02-11T11:19:29.427Z,9.6
2023-02-11T11:20:29.758Z,9.6
2023-02-11T11:21:29.448Z,9.63
2023-02-11T11:22:29.382Z,9.73
2023-02-11T11:23:29.427Z,9.84
2023-02-11T11:24:29.441Z,9.84
2023-02-11T11:25:29.690Z,9.84
2023-02-11T11:26:31.676Z,9.91
2023-02-11T11:27:29.421Z,10.02
2023-02-11T11:28:29.437Z,10.11
2023-02-11T11:29:29.343Z,10.22
2023-02-11T11:30:29.709Z,10.27
2023-02-11T11:31:29.429Z,10.33
2023-02-11T11:32:29.466Z,10.42
2023-02-11T11:33:29.348Z,10.42
2023-02-11T11:34:29.322Z,10.23
2023-02-11T11:35:29.696Z,10.18
2023-02-11T11:36:29.278Z,10.21
2023-02-11T11:37:31.796Z,10.16
2023-02-11T11:38:29.388Z,10.05
2023-02-11T11:39:29.325Z,9.94
2023-02-11T11:40:29.684Z,9.95
2023-02-11T11:41:29.362Z,9.91
2023-02-11T11:42:29.447Z,9.74
2023-02-11T11:43:29.326Z,9.69
2023-02-11T11:44:29.424Z,9.67
2023-02-11T11:45:29.666Z,9.66
2023-02-11T11:46:29.476Z,9.63
2023-02-11T11:47:29.362Z,9.51
2023-02-11T11:48:31.760Z,9.31
2023-02-11T11:49:29.348Z,9.25
2023-02-11T11:50:29.659Z,9.35
2023-02-11T11:51:29.457Z,9.48
2023-02-11T11:52:29.437Z,9.63
2023-02-11T11:53:29.336Z,9.63
2023-02-11T11:54:29.327Z,9.59
2023-02-11T11:55:29.666Z,9.6
2023-02-11T11:56:29.319Z,9.64
2023-02-11T11:57:29.445Z,9.76
2023-02-11T11:58:29.420Z,9.91
2023-02-11T11:59:31.663Z,9.87
2023-02-11T12:00:29.666Z,9.92
2023-02-11T12:01:29.424Z,9.98
2023-02-11T12:02:29.291Z,10.09
2023-02-11T12:03:29.364Z,10.27
2023-02-11T12:04:29.381Z,10.34
2023-02-11T12:05:29.371Z,10.41
2023-02-11T12:06:29.340Z,10.51
2023-02-11T12:07:29.368Z,10.63
2023-02-11T12:08:29.413Z,10.74
2023-02-11T12:09:29.435Z,10.87
2023-02-11T12:10:34.105Z,10.94
2023-02-11T12:11:29.452Z,10.97
2023-02-11T12:12:29.370Z,10.99
2023-02-11T12:13:29.451Z,10.97
2023-02-11T12:14:29.372Z,10.96
2023-02-11T12:15:29.664Z,10.94
2023-02-11T12:16:29.480Z,10.94
2023-02-11T12:17:29.388Z,10.95
2023-02-11T12:18:29.303Z,10.9
2023-02-11T12:19:29.350Z,10.9
2023-02-11T12:20:29.710Z,10.89
2023-02-11T12:21:31.717Z,10.74
2023-02-11T12:22:29.418Z,10.76
2023-02-11T12:23:29.401Z,10.87
2023-02-11T12:24:29.350Z,10.97
2023-02-11T12:25:29.670Z,11.02
2023-02-11T12:26:29.397Z,10.99
2023-02-11T12:27:29.483Z,10.89
2023-02-11T12:28:29.450Z,10.89
2023-02-11T12:29:29.323Z,10.91
2023-02-11T12:30:29.376Z,10.84
2023-02-11T12:31:29.498Z,10.83
2023-02-11T12:32:31.667Z,10.76
2023-02-11T12:33:29.422Z,10.62
2023-02-11T12:34:29.392Z,10.39
2023-02-11T12:35:29.667Z,10.16
2023-02-11T12:36:29.318Z,10.08
2023-02-11T12:37:29.518Z,10.01
2023-02-11T12:38:29.331Z,9.92
2023-02-11T12:39:29.370Z,9.88
2023-02-11T12:40:29.667Z,9.87
2023-02-11T12:41:29.318Z,9.78
2023-02-11T12:42:29.352Z,9.73
2023-02-11T12:43:31.680Z,9.71
2023-02-11T12:44:29.444Z,9.71
2023-02-11T12:45:29.725Z,9.71
2023-02-11T12:46:29.353Z,9.75
2023-02-11T12:47:29.383Z,9.81
2023-02-11T12:48:29.366Z,9.9
2023-02-11T12:49:29.432Z,10.01
2023-02-11T12:50:29.675Z,10.15
2023-02-11T12:51:29.384Z,10.22
2023-02-11T12:52:29.357Z,10.29
2023-02-11T12:53:29.362Z,10.3
2023-02-11T12:54:31.786Z,10.26
2023-02-11T12:55:29.673Z,10.29
2023-02-11T12:56:29.426Z,10.28
2023-02-11T12:57:29.411Z,10.34
2023-02-11T12:58:42.882Z,10.41
2023-02-11T12:59:29.389Z,10.42
2023-02-11T13:00:29.669Z,10.4
2023-02-11T13:01:29.540Z,10.32
2023-02-11T13:02:29.440Z,10.29
2023-02-11T13:03:29.378Z,10.19
2023-02-11T13:04:29.302Z,10.15
2023-02-11T13:05:34.149Z,10.02
2023-02-11T13:06:29.386Z,9.9
2023-02-11T13:07:29.377Z,9.82
2023-02-11T13:08:29.314Z,9.76
2023-02-11T13:09:29.440Z,9.67
2023-02-11T13:10:29.690Z,9.66
2023-02-11T13:11:29.340Z,9.67
2023-02-11T13:12:29.349Z,9.67
2023-02-11T13:13:29.437Z,9.71
2023-02-11T13:14:29.350Z,9.74
2023-02-11T13:15:29.416Z,9.72
2023-02-11T13:16:31.728Z,9.76
2023-02-11T13:17:29.450Z,9.7
2023-02-11T13:18:29.939Z,9.63
2023-02-11T13:19:29.344Z,9.55